Covington, Iowa
Current Conditions -  °F | °C
As of 2:52 PM on Friday 19 Dec 2014 (Local Time) from KCID Reporting Station
Overcast Overcast  
Wind Chill: -4°   Ceiling: 2400
Heat Index:   Visibility: 7mi
Dew Point: -6°   Wind: 7mph
Humidity: 66%   Direction: 160°SSE
Pressure: 30.26"   Gusts: NA
Location:  42.0483°N, 91.7982°W
Report Text: KCID 192052Z 16006KT 7SM BKN024 OVC055 00/M06 A3026 RMK AO2 SLP258 T00001056 55003 $
Loading
Personal Weather Stations






























Interactive Weather Map New forecast layout! Learn more

10-Day Weather Forecast

Advertisements
Track Severe Weather on mobile